sensor_id;sensor_type;location;lat;lon;timestamp;temperature;humidity
4695;DHT22;2361;49.540;8.390;2023-08-01T00:02:16;18.90;99.90
4695;DHT22;2361;49.540;8.390;2023-08-01T00:04:43;18.80;99.90
4695;DHT22;2361;49.540;8.390;2023-08-01T00:07:10;18.70;99.90
4695;DHT22;2361;49.540;8.390;2023-08-01T00:09:37;18.70;99.90
4695;DHT22;2361;49.540;8.390;2023-08-01T00:12:05;18.60;99.90
4695;DHT22;2361;49.540;8.390;2023-08-01T00:14:32;18.70;99.90
4695;DHT22;2361;49.540;8.390;2023-08-01T00:16:59;18.70;99.90
4695;DHT22;2361;49.540;8.390;2023-08-01T00:19:27;18.70;99.90
4695;DHT22;2361;49.540;8.390;2023-08-01T00:21:54;18.70;99.90
4695;DHT22;2361;49.540;8.390;2023-08-01T00:24:21;18.70;99.90
4695;DHT22;2361;49.540;8.390;2023-08-01T00:26:48;18.70;99.90
4695;DHT22;2361;49.540;8.390;2023-08-01T00:29:15;18.70;99.90
4695;DHT22;2361;49.540;8.390;2023-08-01T00:31:42;18.60;99.90
4695;DHT22;2361;49.540;8.390;2023-08-01T00:34:09;18.60;99.90
4695;DHT22;2361;49.540;8.390;2023-08-01T00:36:36;18.50;99.90
4695;DHT22;2361;49.540;8.390;2023-08-01T00:39:03;18.50;99.90
4695;DHT22;2361;49.540;8.390;2023-08-01T00:41:30;18.50;99.90
4695;DHT22;2361;49.540;8.390;2023-08-01T00:43:57;18.40;99.90
4695;DHT22;2361;49.540;8.390;2023-08-01T00:46:24;18.40;99.90
4695;DHT22;2361;49.540;8.390;2023-08-01T00:48:52;18.30;99.90
4695;DHT22;2361;49.540;8.390;2023-08-01T00:51:19;18.30;99.90
4695;DHT22;2361;49.540;8.390;2023-08-01T00:53:46;18.30;99.90
4695;DHT22;2361;49.540;8.390;2023-08-01T00:56:14;18.40;99.90
4695;DHT22;2361;49.540;8.390;2023-08-01T00:58:41;18.20;99.90
4695;DHT22;2361;49.540;8.390;2023-08-01T01:01:08;18.20;99.90
4695;DHT22;2361;49.540;8.390;2023-08-01T01:03:36;18.20;99.90
4695;DHT22;2361;49.540;8.390;2023-08-01T01:06:13;18.20;99.90
4695;DHT22;2361;49.540;8.390;2023-08-01T01:08:44;18.20;99.90
4695;DHT22;2361;49.540;8.390;2023-08-01T01:11:11;18.30;99.90
4695;DHT22;2361;49.540;8.390;2023-08-01T01:13:38;18.30;99.90
4695;DHT22;2361;49.540;8.390;2023-08-01T01:16:05;18.30;99.90
4695;DHT22;2361;49.540;8.390;2023-08-01T01:18:32;18.40;99.90
4695;DHT22;2361;49.540;8.390;2023-08-01T01:20:59;18.40;99.90
4695;DHT22;2361;49.540;8.390;2023-08-01T01:23:27;18.50;99.90
4695;DHT22;2361;49.540;8.390;2023-08-01T01:25:56;18.50;99.90
4695;DHT22;2361;49.540;8.390;2023-08-01T01:28:25;18.50;99.90
4695;DHT22;2361;49.540;8.390;2023-08-01T01:30:53;18.60;99.90
4695;DHT22;2361;49.540;8.390;2023-08-01T01:33:22;18.60;99.90
4695;DHT22;2361;49.540;8.390;2023-08-01T01:35:49;18.60;99.90
4695;DHT22;2361;49.540;8.390;2023-08-01T01:38:16;18.60;99.90
4695;DHT22;2361;49.540;8.390;2023-08-01T01:40:43;18.50;99.90
4695;DHT22;2361;49.540;8.390;2023-08-01T01:43:10;18.60;99.90
4695;DHT22;2361;49.540;8.390;2023-08-01T01:45:37;18.60;99.90
4695;DHT22;2361;49.540;8.390;2023-08-01T01:48:04;18.50;99.90
4695;DHT22;2361;49.540;8.390;2023-08-01T01:50:31;18.50;99.90
4695;DHT22;2361;49.540;8.390;2023-08-01T01:52:58;18.50;99.90
4695;DHT22;2361;49.540;8.390;2023-08-01T01:55:25;18.50;99.90
4695;DHT22;2361;49.540;8.390;2023-08-01T01:57:52;18.50;99.90
4695;DHT22;2361;49.540;8.390;2023-08-01T02:00:19;18.50;99.90
4695;DHT22;2361;49.540;8.390;2023-08-01T02:02:46;18.50;99.90
4695;DHT22;2361;49.540;8.390;2023-08-01T02:05:13;18.60;99.90
4695;DHT22;2361;49.540;8.390;2023-08-01T02:07:40;18.70;99.90
4695;DHT22;2361;49.540;8.390;2023-08-01T02:10:07;18.70;99.90
4695;DHT22;2361;49.540;8.390;2023-08-01T02:12:35;18.70;99.90
4695;DHT22;2361;49.540;8.390;2023-08-01T02:15:03;18.80;99.90
4695;DHT22;2361;49.540;8.390;2023-08-01T02:17:31;18.80;99.90
4695;DHT22;2361;49.540;8.390;2023-08-01T02:19:58;18.80;99.90
4695;DHT22;2361;49.540;8.390;2023-08-01T02:22:25;18.80;99.90
4695;DHT22;2361;49.540;8.390;2023-08-01T02:24:53;18.80;99.90
4695;DHT22;2361;49.540;8.390;2023-08-01T02:27:20;18.80;99.90
4695;DHT22;2361;49.540;8.390;2023-08-01T02:29:47;18.80;99.90
4695;DHT22;2361;49.540;8.390;2023-08-01T02:32:17;18.80;99.90
4695;DHT22;2361;49.540;8.390;2023-08-01T02:34:44;18.80;99.90
4695;DHT22;2361;49.540;8.390;2023-08-01T02:37:11;18.80;99.90
4695;DHT22;2361;49.540;8.390;2023-08-01T02:39:38;18.70;99.90
4695;DHT22;2361;49.540;8.390;2023-08-01T02:42:05;18.70;99.90
4695;DHT22;2361;49.540;8.390;2023-08-01T02:44:32;18.70;99.90
4695;DHT22;2361;49.540;8.390;2023-08-01T02:46:59;18.70;99.90
4695;DHT22;2361;49.540;8.390;2023-08-01T02:49:25;18.70;99.90
4695;DHT22;2361;49.540;8.390;2023-08-01T02:51:52;18.70;99.90
4695;DHT22;2361;49.540;8.390;2023-08-01T02:54:19;18.70;99.90
4695;DHT22;2361;49.540;8.390;2023-08-01T02:56:46;18.70;99.90
4695;DHT22;2361;49.540;8.390;2023-08-01T02:59:13;18.70;99.90
4695;DHT22;2361;49.540;8.390;2023-08-01T03:01:40;18.70;99.90
4695;DHT22;2361;49.540;8.390;2023-08-01T03:04:07;18.70;99.90
4695;DHT22;2361;49.540;8.390;2023-08-01T03:06:34;18.60;99.90
4695;DHT22;2361;49.540;8.390;2023-08-01T03:09:01;18.70;99.90
4695;DHT22;2361;49.540;8.390;2023-08-01T03:11:28;18.70;99.90
4695;DHT22;2361;49.540;8.390;2023-08-01T03:13:55;18.70;99.90
4695;DHT22;2361;49.540;8.390;2023-08-01T03:16:22;18.70;99.90
4695;DHT22;2361;49.540;8.390;2023-08-01T03:18:49;18.70;99.90
4695;DHT22;2361;49.540;8.390;2023-08-01T03:21:16;18.70;99.90
4695;DHT22;2361;49.540;8.390;2023-08-01T03:23:43;18.70;99.90
4695;DHT22;2361;49.540;8.390;2023-08-01T03:26:10;18.70;99.90
4695;DHT22;2361;49.540;8.390;2023-08-01T03:28:37;18.70;99.90
4695;DHT22;2361;49.540;8.390;2023-08-01T03:31:04;18.80;99.90
4695;DHT22;2361;49.540;8.390;2023-08-01T03:33:32;18.80;99.90
4695;DHT22;2361;49.540;8.390;2023-08-01T03:36:00;18.80;99.90
4695;DHT22;2361;49.540;8.390;2023-08-01T03:38:27;18.80;99.90
4695;DHT22;2361;49.540;8.390;2023-08-01T03:40:54;18.80;99.90
4695;DHT22;2361;49.540;8.390;2023-08-01T03:43:21;18.90;99.90
4695;DHT22;2361;49.540;8.390;2023-08-01T03:45:51;18.90;99.90
4695;DHT22;2361;49.540;8.390;2023-08-01T03:48:18;18.90;99.90
4695;DHT22;2361;49.540;8.390;2023-08-01T03:50:45;19.00;99.90
4695;DHT22;2361;49.540;8.390;2023-08-01T03:53:12;19.00;99.90
4695;DHT22;2361;49.540;8.390;2023-08-01T03:55:39;19.00;99.90
4695;DHT22;2361;49.540;8.390;2023-08-01T03:58:06;19.00;99.90
4695;DHT22;2361;49.540;8.390;2023-08-01T04:00:33;19.10;99.90
4695;DHT22;2361;49.540;8.390;2023-08-01T04:03:00;19.10;99.90
4695;DHT22;2361;49.540;8.390;2023-08-01T04:05:28;19.10;99.90
4695;DHT22;2361;49.540;8.390;2023-08-01T04:07:56;19.10;99.90
4695;DHT22;2361;49.540;8.390;2023-08-01T04:10:23;19.00;99.90
4695;DHT22;2361;49.540;8.390;2023-08-01T04:12:50;19.00;99.90
4695;DHT22;2361;49.540;8.390;2023-08-01T04:15:17;19.00;99.90
4695;DHT22;2361;49.540;8.390;2023-08-01T04:17:44;19.00;99.90
4695;DHT22;2361;49.540;8.390;2023-08-01T04:20:11;19.00;99.90
4695;DHT22;2361;49.540;8.390;2023-08-01T04:22:39;19.00;99.90
4695;DHT22;2361;49.540;8.390;2023-08-01T04:25:06;18.90;99.90
4695;DHT22;2361;49.540;8.390;2023-08-01T04:27:34;18.90;99.90
4695;DHT22;2361;49.540;8.390;2023-08-01T04:30:01;18.80;99.90
4695;DHT22;2361;49.540;8.390;2023-08-01T04:32:28;18.80;99.90
4695;DHT22;2361;49.540;8.390;2023-08-01T04:34:55;18.80;99.90
4695;DHT22;2361;49.540;8.390;2023-08-01T04:37:22;18.80;99.90
4695;DHT22;2361;49.540;8.390;2023-08-01T04:39:49;18.90;99.90
4695;DHT22;2361;49.540;8.390;2023-08-01T04:42:16;18.90;99.90
4695;DHT22;2361;49.540;8.390;2023-08-01T04:44:43;18.90;99.90
4695;DHT22;2361;49.540;8.390;2023-08-01T04:47:10;18.90;99.90
4695;DHT22;2361;49.540;8.390;2023-08-01T04:49:37;18.90;99.90
4695;DHT22;2361;49.540;8.390;2023-08-01T04:52:05;18.90;99.90
4695;DHT22;2361;49.540;8.390;2023-08-01T04:54:34;18.90;99.90
4695;DHT22;2361;49.540;8.390;2023-08-01T04:57:01;18.90;99.90
4695;DHT22;2361;49.540;8.390;2023-08-01T04:59:28;18.90;99.90
4695;DHT22;2361;49.540;8.390;2023-08-01T05:01:55;18.90;99.90
4695;DHT22;2361;49.540;8.390;2023-08-01T05:04:22;18.90;99.90
4695;DHT22;2361;49.540;8.390;2023-08-01T05:06:49;18.90;99.90
4695;DHT22;2361;49.540;8.390;2023-08-01T05:09:16;18.90;99.90
4695;DHT22;2361;49.540;8.390;2023-08-01T05:11:43;18.90;99.90
4695;DHT22;2361;49.540;8.390;2023-08-01T05:14:10;18.90;99.90
4695;DHT22;2361;49.540;8.390;2023-08-01T05:16:37;18.90;99.90
4695;DHT22;2361;49.540;8.390;2023-08-01T05:19:04;18.90;99.90
4695;DHT22;2361;49.540;8.390;2023-08-01T05:21:31;18.90;99.90
4695;DHT22;2361;49.540;8.390;2023-08-01T05:23:58;18.90;99.90
4695;DHT22;2361;49.540;8.390;2023-08-01T05:26:25;18.90;99.90
4695;DHT22;2361;49.540;8.390;2023-08-01T05:28:52;18.80;99.90
4695;DHT22;2361;49.540;8.390;2023-08-01T05:31:19;18.80;99.90
4695;DHT22;2361;49.540;8.390;2023-08-01T05:33:46;18.80;99.90
4695;DHT22;2361;49.540;8.390;2023-08-01T05:36:13;18.80;99.90
4695;DHT22;2361;49.540;8.390;2023-08-01T05:38:40;18.70;99.90
4695;DHT22;2361;49.540;8.390;2023-08-01T05:41:07;18.70;99.90
4695;DHT22;2361;49.540;8.390;2023-08-01T05:43:34;18.70;99.90
4695;DHT22;2361;49.540;8.390;2023-08-01T05:46:01;18.60;99.90
4695;DHT22;2361;49.540;8.390;2023-08-01T05:48:28;18.60;99.90
4695;DHT22;2361;49.540;8.390;2023-08-01T05:50:55;18.50;99.90
4695;DHT22;2361;49.540;8.390;2023-08-01T05:53:22;18.40;99.90
4695;DHT22;2361;49.540;8.390;2023-08-01T05:55:49;18.30;99.90
4695;DHT22;2361;49.540;8.390;2023-08-01T05:58:16;18.20;99.90
4695;DHT22;2361;49.540;8.390;2023-08-01T06:00:43;18.10;99.90
4695;DHT22;2361;49.540;8.390;2023-08-01T06:03:10;18.10;99.90
4695;DHT22;2361;49.540;8.390;2023-08-01T06:05:37;18.00;99.90
4695;DHT22;2361;49.540;8.390;2023-08-01T06:08:06;18.00;99.90
4695;DHT22;2361;49.540;8.390;2023-08-01T06:10:35;17.90;99.90
4695;DHT22;2361;49.540;8.390;2023-08-01T06:13:02;17.90;99.90
4695;DHT22;2361;49.540;8.390;2023-08-01T06:15:29;17.90;99.90
4695;DHT22;2361;49.540;8.390;2023-08-01T06:17:56;17.80;99.90
4695;DHT22;2361;49.540;8.390;2023-08-01T06:20:23;17.80;99.90
4695;DHT22;2361;49.540;8.390;2023-08-01T06:22:50;17.80;99.90
4695;DHT22;2361;49.540;8.390;2023-08-01T06:25:17;17.80;99.90
4695;DHT22;2361;49.540;8.390;2023-08-01T06:27:44;17.80;99.90
4695;DHT22;2361;49.540;8.390;2023-08-01T06:30:11;17.80;99.90
4695;DHT22;2361;49.540;8.390;2023-08-01T06:32:38;17.80;99.90
4695;DHT22;2361;49.540;8.390;2023-08-01T06:35:06;17.70;99.90
4695;DHT22;2361;49.540;8.390;2023-08-01T06:37:33;17.70;99.90
4695;DHT22;2361;49.540;8.390;2023-08-01T06:40:01;17.70;99.90
4695;DHT22;2361;49.540;8.390;2023-08-01T06:42:28;17.80;99.90
4695;DHT22;2361;49.540;8.390;2023-08-01T06:44:55;17.80;99.90
4695;DHT22;2361;49.540;8.390;2023-08-01T06:47:22;17.80;99.90
4695;DHT22;2361;49.540;8.390;2023-08-01T06:49:49;17.80;99.90
4695;DHT22;2361;49.540;8.390;2023-08-01T06:52:16;17.80;99.90
4695;DHT22;2361;49.540;8.390;2023-08-01T06:54:43;17.90;99.90
4695;DHT22;2361;49.540;8.390;2023-08-01T06:57:10;17.90;99.90
4695;DHT22;2361;49.540;8.390;2023-08-01T06:59:37;17.90;99.90
4695;DHT22;2361;49.540;8.390;2023-08-01T07:02:04;18.00;99.90
4695;DHT22;2361;49.540;8.390;2023-08-01T07:04:31;18.10;99.90
4695;DHT22;2361;49.540;8.390;2023-08-01T07:06:58;18.10;99.90
4695;DHT22;2361;49.540;8.390;2023-08-01T07:09:25;18.10;99.90
4695;DHT22;2361;49.540;8.390;2023-08-01T07:11:52;18.10;99.90
4695;DHT22;2361;49.540;8.390;2023-08-01T07:14:19;18.20;99.90
4695;DHT22;2361;49.540;8.390;2023-08-01T07:16:46;18.40;99.90
4695;DHT22;2361;49.540;8.390;2023-08-01T07:19:14;18.50;99.90
4695;DHT22;2361;49.540;8.390;2023-08-01T07:21:41;18.60;99.90
4695;DHT22;2361;49.540;8.390;2023-08-01T07:24:08;18.50;99.90
4695;DHT22;2361;49.540;8.390;2023-08-01T07:26:34;18.60;99.90
4695;DHT22;2361;49.540;8.390;2023-08-01T07:29:01;18.60;99.90
4695;DHT22;2361;49.540;8.390;2023-08-01T07:31:28;18.60;99.90
4695;DHT22;2361;49.540;8.390;2023-08-01T07:33:56;18.70;99.90
4695;DHT22;2361;49.540;8.390;2023-08-01T07:36:23;18.70;99.90
4695;DHT22;2361;49.540;8.390;2023-08-01T07:38:50;18.80;99.90
4695;DHT22;2361;49.540;8.390;2023-08-01T07:41:17;18.90;99.90
4695;DHT22;2361;49.540;8.390;2023-08-01T07:43:44;19.00;99.90
4695;DHT22;2361;49.540;8.390;2023-08-01T07:46:11;19.00;99.90
4695;DHT22;2361;49.540;8.390;2023-08-01T07:48:38;19.10;99.90
4695;DHT22;2361;49.540;8.390;2023-08-01T07:51:05;19.10;99.90
4695;DHT22;2361;49.540;8.390;2023-08-01T07:53:34;19.10;99.90
4695;DHT22;2361;49.540;8.390;2023-08-01T07:56:01;19.20;99.90
4695;DHT22;2361;49.540;8.390;2023-08-01T07:58:29;19.20;99.90
4695;DHT22;2361;49.540;8.390;2023-08-01T08:00:56;19.20;99.90
4695;DHT22;2361;49.540;8.390;2023-08-01T08:03:23;19.20;99.90
4695;DHT22;2361;49.540;8.390;2023-08-01T08:05:51;19.20;99.90
4695;DHT22;2361;49.540;8.390;2023-08-01T08:08:18;19.30;99.90
4695;DHT22;2361;49.540;8.390;2023-08-01T08:10:45;19.30;99.90
4695;DHT22;2361;49.540;8.390;2023-08-01T08:13:12;19.30;99.90
4695;DHT22;2361;49.540;8.390;2023-08-01T08:15:39;19.40;99.90
4695;DHT22;2361;49.540;8.390;2023-08-01T08:18:06;19.40;99.90
4695;DHT22;2361;49.540;8.390;2023-08-01T08:20:41;19.50;99.90
4695;DHT22;2361;49.540;8.390;2023-08-01T08:23:09;19.50;99.90
4695;DHT22;2361;49.540;8.390;2023-08-01T08:25:37;19.60;99.90
4695;DHT22;2361;49.540;8.390;2023-08-01T08:28:04;19.60;99.90
4695;DHT22;2361;49.540;8.390;2023-08-01T08:30:31;19.60;99.90
4695;DHT22;2361;49.540;8.390;2023-08-01T08:32:58;19.60;99.90
4695;DHT22;2361;49.540;8.390;2023-08-01T08:35:30;19.60;99.90
4695;DHT22;2361;49.540;8.390;2023-08-01T08:38:02;19.60;99.90
4695;DHT22;2361;49.540;8.390;2023-08-01T08:40:33;19.80;99.90
4695;DHT22;2361;49.540;8.390;2023-08-01T08:43:02;20.50;99.90
4695;DHT22;2361;49.540;8.390;2023-08-01T08:45:34;20.90;99.90
4695;DHT22;2361;49.540;8.390;2023-08-01T08:48:12;21.10;99.90
4695;DHT22;2361;49.540;8.390;2023-08-01T08:50:40;21.10;99.90
4695;DHT22;2361;49.540;8.390;2023-08-01T08:53:08;21.40;99.90
4695;DHT22;2361;49.540;8.390;2023-08-01T08:55:40;21.90;99.90
4695;DHT22;2361;49.540;8.390;2023-08-01T08:58:08;23.60;99.90
4695;DHT22;2361;49.540;8.390;2023-08-01T09:00:36;24.60;99.90
4695;DHT22;2361;49.540;8.390;2023-08-01T09:03:04;25.60;99.90
4695;DHT22;2361;49.540;8.390;2023-08-01T09:05:45;26.40;99.90
4695;DHT22;2361;49.540;8.390;2023-08-01T09:08:19;26.80;99.90
4695;DHT22;2361;49.540;8.390;2023-08-01T09:10:47;27.10;99.90
4695;DHT22;2361;49.540;8.390;2023-08-01T09:13:15;27.20;99.90
4695;DHT22;2361;49.540;8.390;2023-08-01T09:15:42;27.00;99.90
4695;DHT22;2361;49.540;8.390;2023-08-01T09:18:10;26.90;99.90
4695;DHT22;2361;49.540;8.390;2023-08-01T09:20:46;26.60;99.90
4695;DHT22;2361;49.540;8.390;2023-08-01T09:23:15;26.30;99.90
4695;DHT22;2361;49.540;8.390;2023-08-01T09:25:43;26.00;99.90
4695;DHT22;2361;49.540;8.390;2023-08-01T09:28:22;25.70;99.90
4695;DHT22;2361;49.540;8.390;2023-08-01T09:30:54;25.30;99.90
4695;DHT22;2361;49.540;8.390;2023-08-01T09:33:22;25.10;99.90
4695;DHT22;2361;49.540;8.390;2023-08-01T09:35:50;24.90;99.90
4695;DHT22;2361;49.540;8.390;2023-08-01T09:38:18;24.80;99.90
4695;DHT22;2361;49.540;8.390;2023-08-01T09:40:46;24.80;99.90
4695;DHT22;2361;49.540;8.390;2023-08-01T09:43:13;24.90;99.90
4695;DHT22;2361;49.540;8.390;2023-08-01T09:45:53;24.90;99.90
4695;DHT22;2361;49.540;8.390;2023-08-01T09:48:25;24.70;99.90
4695;DHT22;2361;49.540;8.390;2023-08-01T09:51:11;24.60;99.90
4695;DHT22;2361;49.540;8.390;2023-08-01T09:53:50;24.50;99.90
4695;DHT22;2361;49.540;8.390;2023-08-01T09:56:27;24.30;99.90
4695;DHT22;2361;49.540;8.390;2023-08-01T09:58:56;24.30;99.90
4695;DHT22;2361;49.540;8.390;2023-08-01T10:01:24;24.30;99.90
4695;DHT22;2361;49.540;8.390;2023-08-01T10:03:52;24.30;99.90
4695;DHT22;2361;49.540;8.390;2023-08-01T10:06:22;24.60;99.90
4695;DHT22;2361;49.540;8.390;2023-08-01T10:08:51;25.10;99.90
4695;DHT22;2361;49.540;8.390;2023-08-01T10:11:21;25.70;99.90
4695;DHT22;2361;49.540;8.390;2023-08-01T10:13:49;26.50;99.90
4695;DHT22;2361;49.540;8.390;2023-08-01T10:16:16;27.20;99.90
4695;DHT22;2361;49.540;8.390;2023-08-01T10:18:44;27.80;99.90
4695;DHT22;2361;49.540;8.390;2023-08-01T10:21:15;27.50;99.90
4695;DHT22;2361;49.540;8.390;2023-08-01T10:23:44;27.00;99.90
4695;DHT22;2361;49.540;8.390;2023-08-01T10:26:12;26.40;99.90
4695;DHT22;2361;49.540;8.390;2023-08-01T10:28:41;26.00;99.90
4695;DHT22;2361;49.540;8.390;2023-08-01T10:31:17;25.80;99.90
4695;DHT22;2361;49.540;8.390;2023-08-01T10:33:47;25.60;99.90
4695;DHT22;2361;49.540;8.390;2023-08-01T10:36:20;25.50;99.90
4695;DHT22;2361;49.540;8.390;2023-08-01T10:38:53;25.30;99.90
4695;DHT22;2361;49.540;8.390;2023-08-01T10:41:30;25.30;99.90
4695;DHT22;2361;49.540;8.390;2023-08-01T10:44:12;25.00;99.90
4695;DHT22;2361;49.540;8.390;2023-08-01T10:46:50;24.70;99.90
4695;DHT22;2361;49.540;8.390;2023-08-01T10:49:39;24.20;99.90
4695;DHT22;2361;49.540;8.390;2023-08-01T10:55:02;23.10;99.90
4695;DHT22;2361;49.540;8.390;2023-08-01T10:57:31;22.70;99.90
4695;DHT22;2361;49.540;8.390;2023-08-01T11:00:00;22.30;99.90
4695;DHT22;2361;49.540;8.390;2023-08-01T11:02:28;22.10;99.90
4695;DHT22;2361;49.540;8.390;2023-08-01T11:05:05;22.00;99.90
4695;DHT22;2361;49.540;8.390;2023-08-01T11:07:35;22.10;99.90
4695;DHT22;2361;49.540;8.390;2023-08-01T11:12:36;22.30;99.90
4695;DHT22;2361;49.540;8.390;2023-08-01T11:15:12;22.30;99.90
4695;DHT22;2361;49.540;8.390;2023-08-01T11:17:51;22.30;99.90
4695;DHT22;2361;49.540;8.390;2023-08-01T11:20:21;22.40;99.90
4695;DHT22;2361;49.540;8.390;2023-08-01T11:23:00;22.50;99.90
4695;DHT22;2361;49.540;8.390;2023-08-01T11:25:42;22.60;99.90
4695;DHT22;2361;49.540;8.390;2023-08-01T11:28:13;22.60;99.90
4695;DHT22;2361;49.540;8.390;2023-08-01T11:30:40;22.70;99.90
4695;DHT22;2361;49.540;8.390;2023-08-01T11:33:22;22.70;99.90
4695;DHT22;2361;49.540;8.390;2023-08-01T11:35:53;22.70;99.90
4695;DHT22;2361;49.540;8.390;2023-08-01T11:38:27;22.70;99.90
4695;DHT22;2361;49.540;8.390;2023-08-01T11:40:57;22.80;99.90
4695;DHT22;2361;49.540;8.390;2023-08-01T11:43:24;22.80;99.90
4695;DHT22;2361;49.540;8.390;2023-08-01T11:45:53;22.90;99.90
4695;DHT22;2361;49.540;8.390;2023-08-01T11:48:22;22.90;99.90
4695;DHT22;2361;49.540;8.390;2023-08-01T11:50:57;22.90;99.90
4695;DHT22;2361;49.540;8.390;2023-08-01T11:53:25;22.80;99.90
4695;DHT22;2361;49.540;8.390;2023-08-01T11:55:52;22.80;99.90
4695;DHT22;2361;49.540;8.390;2023-08-01T11:58:29;22.80;99.90
4695;DHT22;2361;49.540;8.390;2023-08-01T12:01:11;22.90;99.90
4695;DHT22;2361;49.540;8.390;2023-08-01T12:03:47;22.90;99.90
4695;DHT22;2361;49.540;8.390;2023-08-01T12:06:16;23.00;99.90
4695;DHT22;2361;49.540;8.390;2023-08-01T12:08:45;23.20;99.90
4695;DHT22;2361;49.540;8.390;2023-08-01T12:11:21;23.40;99.90
4695;DHT22;2361;49.540;8.390;2023-08-01T12:16:33;23.50;99.90
4695;DHT22;2361;49.540;8.390;2023-08-01T12:19:00;23.50;99.90
4695;DHT22;2361;49.540;8.390;2023-08-01T12:21:28;23.50;99.90
4695;DHT22;2361;49.540;8.390;2023-08-01T12:23:56;23.60;99.90
4695;DHT22;2361;49.540;8.390;2023-08-01T12:26:23;23.60;99.90
4695;DHT22;2361;49.540;8.390;2023-08-01T12:28:50;23.60;99.90
4695;DHT22;2361;49.540;8.390;2023-08-01T12:31:21;23.70;99.90
4695;DHT22;2361;49.540;8.390;2023-08-01T12:33:48;23.70;99.90
4695;DHT22;2361;49.540;8.390;2023-08-01T12:36:16;23.80;99.90
4695;DHT22;2361;49.540;8.390;2023-08-01T12:38:43;23.90;99.90
4695;DHT22;2361;49.540;8.390;2023-08-01T12:41:10;24.00;99.90
4695;DHT22;2361;49.540;8.390;2023-08-01T12:43:37;24.10;99.90
4695;DHT22;2361;49.540;8.390;2023-08-01T12:46:04;24.10;99.90
4695;DHT22;2361;49.540;8.390;2023-08-01T12:48:31;24.10;99.90
4695;DHT22;2361;49.540;8.390;2023-08-01T12:50:58;24.20;99.90
4695;DHT22;2361;49.540;8.390;2023-08-01T12:53:25;24.20;99.90
4695;DHT22;2361;49.540;8.390;2023-08-01T12:55:52;24.10;99.90
4695;DHT22;2361;49.540;8.390;2023-08-01T12:58:19;24.20;99.90
4695;DHT22;2361;49.540;8.390;2023-08-01T13:00:46;24.20;99.90
4695;DHT22;2361;49.540;8.390;2023-08-01T13:03:13;24.10;99.90
4695;DHT22;2361;49.540;8.390;2023-08-01T13:05:41;24.00;99.90
4695;DHT22;2361;49.540;8.390;2023-08-01T13:08:09;24.00;99.90
4695;DHT22;2361;49.540;8.390;2023-08-01T13:10:38;24.00;99.90
4695;DHT22;2361;49.540;8.390;2023-08-01T13:13:05;24.00;99.90
4695;DHT22;2361;49.540;8.390;2023-08-01T13:15:32;24.10;99.90
4695;DHT22;2361;49.540;8.390;2023-08-01T13:18:00;24.20;99.90
4695;DHT22;2361;49.540;8.390;2023-08-01T13:20:27;24.30;99.90
4695;DHT22;2361;49.540;8.390;2023-08-01T13:22:56;24.40;99.90
4695;DHT22;2361;49.540;8.390;2023-08-01T13:25:23;24.60;99.90
4695;DHT22;2361;49.540;8.390;2023-08-01T13:27:50;24.60;99.90
4695;DHT22;2361;49.540;8.390;2023-08-01T13:30:17;24.60;99.90
4695;DHT22;2361;49.540;8.390;2023-08-01T13:32:45;24.50;99.90
4695;DHT22;2361;49.540;8.390;2023-08-01T13:35:13;24.40;99.90
4695;DHT22;2361;49.540;8.390;2023-08-01T13:37:40;24.40;99.90
4695;DHT22;2361;49.540;8.390;2023-08-01T13:40:08;24.40;99.90
4695;DHT22;2361;49.540;8.390;2023-08-01T13:42:37;24.40;99.90
4695;DHT22;2361;49.540;8.390;2023-08-01T13:45:04;24.30;99.90
4695;DHT22;2361;49.540;8.390;2023-08-01T13:47:31;24.30;99.90
4695;DHT22;2361;49.540;8.390;2023-08-01T13:49:58;24.30;99.90
4695;DHT22;2361;49.540;8.390;2023-08-01T13:52:25;24.30;99.90
4695;DHT22;2361;49.540;8.390;2023-08-01T13:54:52;24.30;99.90
4695;DHT22;2361;49.540;8.390;2023-08-01T13:57:19;24.20;99.90
4695;DHT22;2361;49.540;8.390;2023-08-01T13:59:46;24.20;99.90
4695;DHT22;2361;49.540;8.390;2023-08-01T14:02:24;24.10;99.90
4695;DHT22;2361;49.540;8.390;2023-08-01T14:04:51;24.10;99.90
4695;DHT22;2361;49.540;8.390;2023-08-01T14:07:19;24.10;99.90
4695;DHT22;2361;49.540;8.390;2023-08-01T14:09:46;24.10;99.90
4695;DHT22;2361;49.540;8.390;2023-08-01T14:12:13;24.10;99.90
4695;DHT22;2361;49.540;8.390;2023-08-01T14:14:43;24.20;99.90
4695;DHT22;2361;49.540;8.390;2023-08-01T14:17:09;24.20;99.90
4695;DHT22;2361;49.540;8.390;2023-08-01T14:19:36;24.20;99.90
4695;DHT22;2361;49.540;8.390;2023-08-01T14:22:04;24.30;99.90
4695;DHT22;2361;49.540;8.390;2023-08-01T14:24:31;24.30;99.70
4695;DHT22;2361;49.540;8.390;2023-08-01T14:26:58;24.30;99.70
4695;DHT22;2361;49.540;8.390;2023-08-01T14:29:25;24.30;99.80
4695;DHT22;2361;49.540;8.390;2023-08-01T14:31:52;24.30;99.80
4695;DHT22;2361;49.540;8.390;2023-08-01T14:34:19;24.30;99.30
4695;DHT22;2361;49.540;8.390;2023-08-01T14:36:46;24.30;99.30
4695;DHT22;2361;49.540;8.390;2023-08-01T14:39:13;24.30;99.70
4695;DHT22;2361;49.540;8.390;2023-08-01T14:41:48;24.30;99.90
4695;DHT22;2361;49.540;8.390;2023-08-01T14:44:18;24.30;99.90
4695;DHT22;2361;49.540;8.390;2023-08-01T14:46:45;24.30;99.90
4695;DHT22;2361;49.540;8.390;2023-08-01T14:49:12;24.40;99.90
4695;DHT22;2361;49.540;8.390;2023-08-01T14:51:39;24.40;99.40
4695;DHT22;2361;49.540;8.390;2023-08-01T14:54:06;24.50;99.30
4695;DHT22;2361;49.540;8.390;2023-08-01T14:56:33;24.40;99.60
4695;DHT22;2361;49.540;8.390;2023-08-01T14:59:00;24.40;99.40
4695;DHT22;2361;49.540;8.390;2023-08-01T15:01:27;24.50;99.40
4695;DHT22;2361;49.540;8.390;2023-08-01T15:03:54;24.60;98.80
4695;DHT22;2361;49.540;8.390;2023-08-01T15:06:21;24.70;98.70
4695;DHT22;2361;49.540;8.390;2023-08-01T15:08:48;24.70;98.30
4695;DHT22;2361;49.540;8.390;2023-08-01T15:11:15;24.80;98.30
4695;DHT22;2361;49.540;8.390;2023-08-01T15:13:42;24.80;98.30
4695;DHT22;2361;49.540;8.390;2023-08-01T15:16:10;24.90;97.90
4695;DHT22;2361;49.540;8.390;2023-08-01T15:18:41;24.80;97.60
4695;DHT22;2361;49.540;8.390;2023-08-01T15:21:08;24.80;97.70
4695;DHT22;2361;49.540;8.390;2023-08-01T15:23:35;24.70;97.60
4695;DHT22;2361;49.540;8.390;2023-08-01T15:26:03;24.70;97.10
4695;DHT22;2361;49.540;8.390;2023-08-01T15:28:30;24.60;97.00
4695;DHT22;2361;49.540;8.390;2023-08-01T15:33:32;24.40;96.70
4695;DHT22;2361;49.540;8.390;2023-08-01T15:36:01;24.40;96.80
4695;DHT22;2361;49.540;8.390;2023-08-01T15:38:34;24.30;97.30
4695;DHT22;2361;49.540;8.390;2023-08-01T15:41:02;24.20;97.30
4695;DHT22;2361;49.540;8.390;2023-08-01T15:43:36;24.20;97.20
4695;DHT22;2361;49.540;8.390;2023-08-01T15:46:04;24.20;96.90
4695;DHT22;2361;49.540;8.390;2023-08-01T15:48:33;24.20;96.70
4695;DHT22;2361;49.540;8.390;2023-08-01T15:51:01;24.20;96.80
4695;DHT22;2361;49.540;8.390;2023-08-01T15:53:31;24.10;96.80
4695;DHT22;2361;49.540;8.390;2023-08-01T15:56:01;24.10;97.10
4695;DHT22;2361;49.540;8.390;2023-08-01T15:58:29;24.00;99.40
4695;DHT22;2361;49.540;8.390;2023-08-01T16:00:57;23.80;99.90
4695;DHT22;2361;49.540;8.390;2023-08-01T16:03:25;23.80;99.90
4695;DHT22;2361;49.540;8.390;2023-08-01T16:05:54;23.70;99.90
4695;DHT22;2361;49.540;8.390;2023-08-01T16:08:21;23.60;99.90
4695;DHT22;2361;49.540;8.390;2023-08-01T16:10:48;23.40;99.90
4695;DHT22;2361;49.540;8.390;2023-08-01T16:13:15;23.40;99.90
4695;DHT22;2361;49.540;8.390;2023-08-01T16:15:42;23.20;99.90
4695;DHT22;2361;49.540;8.390;2023-08-01T16:18:09;23.10;99.90
4695;DHT22;2361;49.540;8.390;2023-08-01T16:20:37;22.80;99.90